This is the latest recevied weather packets stored in our database for station/object KD1KE. If no packets are shown the sender has not sent any weather packets the latest 10 day(s).
| Time | Temp. | Humidity | Pressure | Rain* | Wind** | Luminosity | Snow |
|---|---|---|---|---|---|---|---|
| 1777921623 | 15° C | 74% | 1004.4 hPa | 0 mm | - | - | - |
| 1777921413 | 14.44° C | 74% | 1004.4 hPa | 0 mm | - | - | - |
| 1777920963 | 14.44° C | 78% | 1004.4 hPa | 0 mm | - | - | - |
| 1777920873 | 13.89° C | 79% | 1004.4 hPa | 0 mm | - | - | - |
| 1777920337 | 12.78° C | 82% | 1004.4 hPa | 0 mm | - | - | - |
| 1777920302 | 12.78° C | 82% | 1004.4 hPa | 0 mm | - | - | - |
| 1777919791 | 12.22° C | 83% | 1004.6 hPa | 0 mm | - | - | - |
| 1777919643 | 12.22° C | 83% | 1004.6 hPa | 0 mm | - | - | - |
| 1777919252 | 11.67° C | 85% | 1004.8 hPa | 0.25 mm | - | - | - |
| 1777918982 | 11.67° C | 86% | 1004.8 hPa | 0.25 mm | - | - | - |
| 1777918711 | 11.11° C | 87% | 1004.9 hPa | 0.25 mm | - | - | - |
| 1777918322 | 11.11° C | 88% | 1004.9 hPa | 0.51 mm | - | - | - |
| 1777918172 | 10.56° C | 87% | 1004.9 hPa | 0.51 mm | - | - | - |
| 1777917663 | 10.56° C | 86% | 1004.9 hPa | 0.51 mm | - | - | - |
| 1777917632 | 10.56° C | 86% | 1004.8 hPa | 0.51 mm | - | - | - |
| 1777917092 | 10.56° C | 85% | 1005 hPa | 0.51 mm | - | - | - |
| 1777917004 | 10.56° C | 85% | 1005 hPa | 0.51 mm | - | - | - |
| 1777916551 | 11.11° C | 84% | 1005.1 hPa | 0.25 mm | - | - | - |
| 1777916343 | 11.11° C | 83% | 1005 hPa | 0.25 mm | - | - | - |
| 1777916012 | 11.67° C | 82% | 1005.1 hPa | 0.25 mm | - | - | - |
| 1777915683 | 11.67° C | 81% | 1005.1 hPa | 0.25 mm | - | - | - |
| 1777915471 | 12.22° C | 79% | 1005.1 hPa | 0 mm | - | - | - |
| 1777915023 | 12.22° C | 76% | 1005 hPa | 0 mm | - | - | - |
| 1777914932 | 12.78° C | 74% | 1005 hPa | 0 mm | - | - | - |
| 1777914396 | 13.33° C | 69% | 1004.9 hPa | 0 mm | - | - | - |
* Rain latest hour (hover to see other rain measurements)
** Current wind speed in m/s (hover to see current wind gust speed)